sensor_id;sensor_type;location;lat;lon;timestamp;P1;durP1;ratioP1;P2;durP2;ratioP2
58581;SDS011;44361;51.476;5.700;2023-06-26T00:01:37;15.80;;;10.57;;
58581;SDS011;44361;51.476;5.700;2023-06-26T00:04:04;13.57;;;10.18;;
58581;SDS011;44361;51.476;5.700;2023-06-26T00:06:30;15.68;;;10.32;;
58581;SDS011;44361;51.476;5.700;2023-06-26T00:08:56;13.48;;;10.10;;
58581;SDS011;44361;51.476;5.700;2023-06-26T00:11:23;13.93;;;10.55;;
58581;SDS011;44361;51.476;5.700;2023-06-26T00:13:50;13.38;;;9.90;;
58581;SDS011;44361;51.476;5.700;2023-06-26T00:16:15;15.38;;;10.23;;
58581;SDS011;44361;51.476;5.700;2023-06-26T00:18:41;13.50;;;9.63;;
58581;SDS011;44361;51.476;5.700;2023-06-26T00:21:06;14.15;;;9.68;;
58581;SDS011;44361;51.476;5.700;2023-06-26T00:23:32;13.52;;;9.30;;
58581;SDS011;44361;51.476;5.700;2023-06-26T00:26:01;12.82;;;9.02;;
58581;SDS011;44361;51.476;5.700;2023-06-26T00:28:30;12.57;;;9.00;;
58581;SDS011;44361;51.476;5.700;2023-06-26T00:30:55;12.93;;;8.57;;
58581;SDS011;44361;51.476;5.700;2023-06-26T00:33:21;9.75;;;7.18;;
58581;SDS011;44361;51.476;5.700;2023-06-26T00:35:47;11.13;;;7.47;;
58581;SDS011;44361;51.476;5.700;2023-06-26T00:38:12;13.20;;;7.53;;
58581;SDS011;44361;51.476;5.700;2023-06-26T00:40:38;12.02;;;7.65;;
58581;SDS011;44361;51.476;5.700;2023-06-26T00:43:03;12.45;;;7.20;;
58581;SDS011;44361;51.476;5.700;2023-06-26T00:45:29;10.68;;;7.50;;
58581;SDS011;44361;51.476;5.700;2023-06-26T00:47:54;12.18;;;6.88;;
58581;SDS011;44361;51.476;5.700;2023-06-26T00:50:20;10.38;;;7.32;;
58581;SDS011;44361;51.476;5.700;2023-06-26T00:52:46;12.35;;;7.75;;
58581;SDS011;44361;51.476;5.700;2023-06-26T00:55:12;10.05;;;7.18;;
58581;SDS011;44361;51.476;5.700;2023-06-26T00:57:38;10.60;;;8.00;;
58581;SDS011;44361;51.476;5.700;2023-06-26T01:00:03;9.80;;;7.70;;
58581;SDS011;44361;51.476;5.700;2023-06-26T01:02:30;9.88;;;7.18;;
58581;SDS011;44361;51.476;5.700;2023-06-26T01:04:59;10.48;;;7.05;;
58581;SDS011;44361;51.476;5.700;2023-06-26T01:07:28;11.00;;;7.53;;
58581;SDS011;44361;51.476;5.700;2023-06-26T01:09:54;9.15;;;7.65;;
58581;SDS011;44361;51.476;5.700;2023-06-26T01:12:19;8.75;;;7.30;;
58581;SDS011;44361;51.476;5.700;2023-06-26T01:14:45;10.05;;;7.80;;
58581;SDS011;44361;51.476;5.700;2023-06-26T01:17:11;11.10;;;7.30;;
58581;SDS011;44361;51.476;5.700;2023-06-26T01:19:40;10.50;;;8.25;;
58581;SDS011;44361;51.476;5.700;2023-06-26T01:25:13;9.93;;;7.40;;
58581;SDS011;44361;51.476;5.700;2023-06-26T01:27:50;9.68;;;7.38;;
58581;SDS011;44361;51.476;5.700;2023-06-26T01:30:18;11.73;;;6.70;;
58581;SDS011;44361;51.476;5.700;2023-06-26T01:32:44;9.57;;;6.07;;
58581;SDS011;44361;51.476;5.700;2023-06-26T01:35:11;7.78;;;5.38;;
58581;SDS011;44361;51.476;5.700;2023-06-26T01:37:37;5.53;;;4.53;;
58581;SDS011;44361;51.476;5.700;2023-06-26T01:40:03;9.68;;;4.95;;
58581;SDS011;44361;51.476;5.700;2023-06-26T01:42:31;7.15;;;4.68;;
58581;SDS011;44361;51.476;5.700;2023-06-26T01:44:57;7.07;;;4.40;;
58581;SDS011;44361;51.476;5.700;2023-06-26T01:47:30;10.27;;;5.10;;
58581;SDS011;44361;51.476;5.700;2023-06-26T01:50:05;6.40;;;4.78;;
58581;SDS011;44361;51.476;5.700;2023-06-26T01:55:17;10.32;;;5.20;;
58581;SDS011;44361;51.476;5.700;2023-06-26T01:58:01;9.07;;;5.25;;
58581;SDS011;44361;51.476;5.700;2023-06-26T02:00:27;7.85;;;4.85;;
58581;SDS011;44361;51.476;5.700;2023-06-26T02:02:54;9.40;;;5.00;;
58581;SDS011;44361;51.476;5.700;2023-06-26T02:05:19;9.60;;;5.00;;
58581;SDS011;44361;51.476;5.700;2023-06-26T02:07:45;7.70;;;4.90;;
58581;SDS011;44361;51.476;5.700;2023-06-26T02:10:11;7.28;;;4.80;;
58581;SDS011;44361;51.476;5.700;2023-06-26T02:12:37;8.60;;;5.10;;
58581;SDS011;44361;51.476;5.700;2023-06-26T02:15:03;9.02;;;4.72;;
58581;SDS011;44361;51.476;5.700;2023-06-26T02:17:29;7.32;;;4.60;;
58581;SDS011;44361;51.476;5.700;2023-06-26T02:19:54;7.25;;;4.65;;
58581;SDS011;44361;51.476;5.700;2023-06-26T02:22:20;7.75;;;4.32;;
58581;SDS011;44361;51.476;5.700;2023-06-26T02:24:46;7.82;;;4.63;;
58581;SDS011;44361;51.476;5.700;2023-06-26T02:27:11;9.05;;;5.35;;
58581;SDS011;44361;51.476;5.700;2023-06-26T02:29:37;8.70;;;4.70;;
58581;SDS011;44361;51.476;5.700;2023-06-26T02:32:04;6.45;;;4.43;;
58581;SDS011;44361;51.476;5.700;2023-06-26T02:34:30;8.10;;;4.60;;
58581;SDS011;44361;51.476;5.700;2023-06-26T02:36:55;11.73;;;4.68;;
58581;SDS011;44361;51.476;5.700;2023-06-26T02:39:21;8.85;;;4.57;;
58581;SDS011;44361;51.476;5.700;2023-06-26T02:41:47;8.00;;;4.43;;
58581;SDS011;44361;51.476;5.700;2023-06-26T02:44:12;6.20;;;4.07;;
58581;SDS011;44361;51.476;5.700;2023-06-26T02:46:39;9.35;;;4.95;;
58581;SDS011;44361;51.476;5.700;2023-06-26T02:49:05;6.55;;;4.13;;
58581;SDS011;44361;51.476;5.700;2023-06-26T02:51:31;7.70;;;3.92;;
58581;SDS011;44361;51.476;5.700;2023-06-26T02:53:58;8.43;;;4.20;;
58581;SDS011;44361;51.476;5.700;2023-06-26T02:56:23;6.53;;;3.72;;
58581;SDS011;44361;51.476;5.700;2023-06-26T02:58:49;7.78;;;3.78;;
58581;SDS011;44361;51.476;5.700;2023-06-26T03:01:14;6.88;;;3.92;;
58581;SDS011;44361;51.476;5.700;2023-06-26T03:03:40;6.13;;;3.85;;
58581;SDS011;44361;51.476;5.700;2023-06-26T03:06:07;8.13;;;3.78;;
58581;SDS011;44361;51.476;5.700;2023-06-26T03:08:33;8.35;;;3.95;;
58581;SDS011;44361;51.476;5.700;2023-06-26T03:11:00;8.63;;;3.85;;
58581;SDS011;44361;51.476;5.700;2023-06-26T03:13:26;6.68;;;3.53;;
58581;SDS011;44361;51.476;5.700;2023-06-26T03:15:51;11.48;;;3.75;;
58581;SDS011;44361;51.476;5.700;2023-06-26T03:18:17;7.32;;;3.53;;
58581;SDS011;44361;51.476;5.700;2023-06-26T03:20:42;6.85;;;4.25;;
58581;SDS011;44361;51.476;5.700;2023-06-26T03:23:08;8.32;;;4.00;;
58581;SDS011;44361;51.476;5.700;2023-06-26T03:25:34;6.55;;;3.60;;
58581;SDS011;44361;51.476;5.700;2023-06-26T03:27:59;9.75;;;4.47;;
58581;SDS011;44361;51.476;5.700;2023-06-26T03:30:25;9.10;;;3.60;;
58581;SDS011;44361;51.476;5.700;2023-06-26T03:32:50;9.30;;;3.72;;
58581;SDS011;44361;51.476;5.700;2023-06-26T03:35:16;9.85;;;4.15;;
58581;SDS011;44361;51.476;5.700;2023-06-26T03:37:41;5.78;;;3.67;;
58581;SDS011;44361;51.476;5.700;2023-06-26T03:40:07;9.05;;;3.22;;
58581;SDS011;44361;51.476;5.700;2023-06-26T03:42:33;8.40;;;3.47;;
58581;SDS011;44361;51.476;5.700;2023-06-26T03:44:58;9.50;;;3.28;;
58581;SDS011;44361;51.476;5.700;2023-06-26T03:47:24;9.93;;;4.03;;
58581;SDS011;44361;51.476;5.700;2023-06-26T03:49:49;9.50;;;3.50;;
58581;SDS011;44361;51.476;5.700;2023-06-26T03:52:15;10.35;;;4.60;;
58581;SDS011;44361;51.476;5.700;2023-06-26T03:54:40;10.93;;;3.67;;
58581;SDS011;44361;51.476;5.700;2023-06-26T03:57:06;7.63;;;3.40;;
58581;SDS011;44361;51.476;5.700;2023-06-26T03:59:32;8.38;;;3.22;;
58581;SDS011;44361;51.476;5.700;2023-06-26T04:01:57;7.28;;;3.78;;
58581;SDS011;44361;51.476;5.700;2023-06-26T04:04:23;11.35;;;3.80;;
58581;SDS011;44361;51.476;5.700;2023-06-26T04:06:49;8.63;;;4.18;;
58581;SDS011;44361;51.476;5.700;2023-06-26T04:09:15;9.07;;;4.00;;
58581;SDS011;44361;51.476;5.700;2023-06-26T04:11:41;11.23;;;4.20;;
58581;SDS011;44361;51.476;5.700;2023-06-26T04:14:06;12.40;;;4.40;;
58581;SDS011;44361;51.476;5.700;2023-06-26T04:16:32;9.23;;;4.35;;
58581;SDS011;44361;51.476;5.700;2023-06-26T04:18:57;11.27;;;4.20;;
58581;SDS011;44361;51.476;5.700;2023-06-26T04:21:23;9.50;;;4.20;;
58581;SDS011;44361;51.476;5.700;2023-06-26T04:23:53;7.38;;;4.15;;
58581;SDS011;44361;51.476;5.700;2023-06-26T04:26:18;10.05;;;4.10;;
58581;SDS011;44361;51.476;5.700;2023-06-26T04:28:44;10.95;;;4.07;;
58581;SDS011;44361;51.476;5.700;2023-06-26T04:31:10;12.20;;;3.90;;
58581;SDS011;44361;51.476;5.700;2023-06-26T04:33:36;10.02;;;4.05;;
58581;SDS011;44361;51.476;5.700;2023-06-26T04:36:03;9.60;;;4.40;;
58581;SDS011;44361;51.476;5.700;2023-06-26T04:38:29;10.48;;;3.97;;
58581;SDS011;44361;51.476;5.700;2023-06-26T04:40:55;13.70;;;4.40;;
58581;SDS011;44361;51.476;5.700;2023-06-26T04:43:21;7.20;;;3.88;;
58581;SDS011;44361;51.476;5.700;2023-06-26T04:45:46;15.25;;;5.03;;
58581;SDS011;44361;51.476;5.700;2023-06-26T04:48:12;7.68;;;3.95;;
58581;SDS011;44361;51.476;5.700;2023-06-26T04:50:39;20.13;;;4.85;;
58581;SDS011;44361;51.476;5.700;2023-06-26T04:53:04;13.07;;;4.32;;
58581;SDS011;44361;51.476;5.700;2023-06-26T04:55:30;11.23;;;4.63;;
58581;SDS011;44361;51.476;5.700;2023-06-26T04:57:56;12.32;;;4.68;;
58581;SDS011;44361;51.476;5.700;2023-06-26T05:00:21;12.43;;;4.15;;
58581;SDS011;44361;51.476;5.700;2023-06-26T05:02:47;13.38;;;4.60;;
58581;SDS011;44361;51.476;5.700;2023-06-26T05:05:13;8.65;;;3.72;;
58581;SDS011;44361;51.476;5.700;2023-06-26T05:07:38;18.15;;;4.90;;
58581;SDS011;44361;51.476;5.700;2023-06-26T05:10:06;13.52;;;4.13;;
58581;SDS011;44361;51.476;5.700;2023-06-26T05:12:32;17.67;;;4.10;;
58581;SDS011;44361;51.476;5.700;2023-06-26T05:14:58;11.38;;;3.67;;
58581;SDS011;44361;51.476;5.700;2023-06-26T05:17:23;8.50;;;4.18;;
58581;SDS011;44361;51.476;5.700;2023-06-26T05:19:49;13.77;;;4.35;;
58581;SDS011;44361;51.476;5.700;2023-06-26T05:22:14;16.17;;;4.28;;
58581;SDS011;44361;51.476;5.700;2023-06-26T05:24:42;14.35;;;4.15;;
58581;SDS011;44361;51.476;5.700;2023-06-26T05:27:10;12.55;;;4.43;;
58581;SDS011;44361;51.476;5.700;2023-06-26T05:29:44;12.40;;;4.00;;
58581;SDS011;44361;51.476;5.700;2023-06-26T05:32:09;11.38;;;3.80;;
58581;SDS011;44361;51.476;5.700;2023-06-26T05:34:37;13.38;;;4.13;;
58581;SDS011;44361;51.476;5.700;2023-06-26T05:37:05;16.90;;;4.53;;
58581;SDS011;44361;51.476;5.700;2023-06-26T05:39:31;12.10;;;3.67;;
58581;SDS011;44361;51.476;5.700;2023-06-26T05:41:57;14.18;;;3.90;;
58581;SDS011;44361;51.476;5.700;2023-06-26T05:44:23;17.13;;;4.50;;
58581;SDS011;44361;51.476;5.700;2023-06-26T05:46:49;10.65;;;3.28;;
58581;SDS011;44361;51.476;5.700;2023-06-26T05:49:14;14.93;;;3.50;;
58581;SDS011;44361;51.476;5.700;2023-06-26T05:51:40;17.45;;;3.90;;
58581;SDS011;44361;51.476;5.700;2023-06-26T05:54:06;12.13;;;3.92;;
58581;SDS011;44361;51.476;5.700;2023-06-26T05:56:32;15.35;;;3.70;;
58581;SDS011;44361;51.476;5.700;2023-06-26T05:58:58;13.35;;;3.75;;
58581;SDS011;44361;51.476;5.700;2023-06-26T06:01:23;10.10;;;3.88;;
58581;SDS011;44361;51.476;5.700;2023-06-26T06:03:49;8.05;;;3.13;;
58581;SDS011;44361;51.476;5.700;2023-06-26T06:06:15;9.85;;;3.40;;
58581;SDS011;44361;51.476;5.700;2023-06-26T06:08:41;12.85;;;3.35;;
58581;SDS011;44361;51.476;5.700;2023-06-26T06:11:06;13.10;;;3.90;;
58581;SDS011;44361;51.476;5.700;2023-06-26T06:13:32;15.85;;;3.40;;
58581;SDS011;44361;51.476;5.700;2023-06-26T06:15:57;11.93;;;3.17;;
58581;SDS011;44361;51.476;5.700;2023-06-26T06:18:23;11.23;;;3.15;;
58581;SDS011;44361;51.476;5.700;2023-06-26T06:20:49;12.05;;;3.10;;
58581;SDS011;44361;51.476;5.700;2023-06-26T06:23:14;13.40;;;2.80;;
58581;SDS011;44361;51.476;5.700;2023-06-26T06:25:40;16.50;;;3.55;;
58581;SDS011;44361;51.476;5.700;2023-06-26T06:28:05;14.85;;;3.25;;
58581;SDS011;44361;51.476;5.700;2023-06-26T06:30:31;10.13;;;3.08;;
58581;SDS011;44361;51.476;5.700;2023-06-26T06:32:57;10.00;;;3.55;;
58581;SDS011;44361;51.476;5.700;2023-06-26T06:35:23;7.93;;;3.30;;
58581;SDS011;44361;51.476;5.700;2023-06-26T06:37:48;11.15;;;2.90;;
58581;SDS011;44361;51.476;5.700;2023-06-26T06:40:14;9.30;;;3.17;;
58581;SDS011;44361;51.476;5.700;2023-06-26T06:42:40;14.88;;;2.75;;
58581;SDS011;44361;51.476;5.700;2023-06-26T06:45:06;11.65;;;3.38;;
58581;SDS011;44361;51.476;5.700;2023-06-26T06:47:32;7.57;;;2.80;;
58581;SDS011;44361;51.476;5.700;2023-06-26T06:49:58;8.32;;;2.88;;
58581;SDS011;44361;51.476;5.700;2023-06-26T06:52:27;10.93;;;3.33;;
58581;SDS011;44361;51.476;5.700;2023-06-26T06:54:57;9.70;;;2.72;;
58581;SDS011;44361;51.476;5.700;2023-06-26T06:57:30;9.68;;;2.88;;
58581;SDS011;44361;51.476;5.700;2023-06-26T06:59:55;7.65;;;2.35;;
58581;SDS011;44361;51.476;5.700;2023-06-26T07:02:21;9.82;;;3.00;;
58581;SDS011;44361;51.476;5.700;2023-06-26T07:04:46;8.88;;;2.50;;
58581;SDS011;44361;51.476;5.700;2023-06-26T07:07:12;6.95;;;2.65;;
58581;SDS011;44361;51.476;5.700;2023-06-26T07:09:41;10.90;;;2.55;;
58581;SDS011;44361;51.476;5.700;2023-06-26T07:12:06;12.45;;;2.60;;
58581;SDS011;44361;51.476;5.700;2023-06-26T07:14:32;8.52;;;2.47;;
58581;SDS011;44361;51.476;5.700;2023-06-26T07:16:58;10.18;;;2.50;;
58581;SDS011;44361;51.476;5.700;2023-06-26T07:19:23;8.18;;;2.47;;
58581;SDS011;44361;51.476;5.700;2023-06-26T07:21:49;6.53;;;2.20;;
58581;SDS011;44361;51.476;5.700;2023-06-26T07:24:14;10.38;;;2.33;;
58581;SDS011;44361;51.476;5.700;2023-06-26T07:26:40;8.63;;;2.42;;
58581;SDS011;44361;51.476;5.700;2023-06-26T07:29:05;6.22;;;2.00;;
58581;SDS011;44361;51.476;5.700;2023-06-26T07:31:31;4.72;;;2.05;;
58581;SDS011;44361;51.476;5.700;2023-06-26T07:33:57;8.10;;;2.47;;
58581;SDS011;44361;51.476;5.700;2023-06-26T07:36:22;10.75;;;2.85;;
58581;SDS011;44361;51.476;5.700;2023-06-26T07:38:48;5.78;;;2.17;;
58581;SDS011;44361;51.476;5.700;2023-06-26T07:41:13;10.25;;;2.35;;
58581;SDS011;44361;51.476;5.700;2023-06-26T07:43:39;5.20;;;2.25;;
58581;SDS011;44361;51.476;5.700;2023-06-26T07:46:04;7.68;;;2.33;;
58581;SDS011;44361;51.476;5.700;2023-06-26T07:48:30;11.40;;;2.40;;
58581;SDS011;44361;51.476;5.700;2023-06-26T07:50:55;11.80;;;2.15;;
58581;SDS011;44361;51.476;5.700;2023-06-26T07:53:21;8.60;;;2.25;;
58581;SDS011;44361;51.476;5.700;2023-06-26T07:55:46;9.35;;;2.50;;
58581;SDS011;44361;51.476;5.700;2023-06-26T07:58:12;8.52;;;2.72;;
58581;SDS011;44361;51.476;5.700;2023-06-26T08:00:37;6.90;;;2.17;;
58581;SDS011;44361;51.476;5.700;2023-06-26T08:03:03;11.88;;;2.30;;
58581;SDS011;44361;51.476;5.700;2023-06-26T08:05:29;8.35;;;2.55;;
58581;SDS011;44361;51.476;5.700;2023-06-26T08:07:54;10.00;;;2.20;;
58581;SDS011;44361;51.476;5.700;2023-06-26T08:10:20;8.50;;;2.22;;
58581;SDS011;44361;51.476;5.700;2023-06-26T08:12:46;6.63;;;2.20;;
58581;SDS011;44361;51.476;5.700;2023-06-26T08:15:11;8.65;;;2.20;;
58581;SDS011;44361;51.476;5.700;2023-06-26T08:17:37;3.88;;;2.13;;
58581;SDS011;44361;51.476;5.700;2023-06-26T08:20:03;6.95;;;2.05;;
58581;SDS011;44361;51.476;5.700;2023-06-26T08:22:30;6.50;;;1.90;;
58581;SDS011;44361;51.476;5.700;2023-06-26T08:24:55;6.53;;;2.88;;
58581;SDS011;44361;51.476;5.700;2023-06-26T08:27:21;6.88;;;2.47;;
58581;SDS011;44361;51.476;5.700;2023-06-26T08:29:47;10.32;;;2.85;;
58581;SDS011;44361;51.476;5.700;2023-06-26T08:32:12;7.20;;;2.45;;
58581;SDS011;44361;51.476;5.700;2023-06-26T08:34:38;6.00;;;2.03;;
58581;SDS011;44361;51.476;5.700;2023-06-26T08:37:04;6.03;;;2.22;;
58581;SDS011;44361;51.476;5.700;2023-06-26T08:39:29;3.17;;;1.70;;
58581;SDS011;44361;51.476;5.700;2023-06-26T08:41:55;6.53;;;2.00;;
58581;SDS011;44361;51.476;5.700;2023-06-26T08:44:20;4.15;;;1.60;;
58581;SDS011;44361;51.476;5.700;2023-06-26T08:46:50;3.47;;;1.52;;
58581;SDS011;44361;51.476;5.700;2023-06-26T08:49:18;4.30;;;1.63;;
58581;SDS011;44361;51.476;5.700;2023-06-26T08:51:51;5.30;;;1.55;;
58581;SDS011;44361;51.476;5.700;2023-06-26T08:54:22;4.25;;;1.20;;
58581;SDS011;44361;51.476;5.700;2023-06-26T08:56:58;4.35;;;1.10;;
58581;SDS011;44361;51.476;5.700;2023-06-26T08:59:24;1.80;;;1.00;;
58581;SDS011;44361;51.476;5.700;2023-06-26T09:01:50;5.43;;;1.13;;
58581;SDS011;44361;51.476;5.700;2023-06-26T09:04:16;4.13;;;1.13;;
58581;SDS011;44361;51.476;5.700;2023-06-26T09:06:41;10.32;;;1.52;;
58581;SDS011;44361;51.476;5.700;2023-06-26T09:09:07;3.92;;;1.00;;
58581;SDS011;44361;51.476;5.700;2023-06-26T09:11:32;6.60;;;1.05;;
58581;SDS011;44361;51.476;5.700;2023-06-26T09:13:59;3.97;;;1.02;;
58581;SDS011;44361;51.476;5.700;2023-06-26T09:16:25;4.93;;;0.90;;
58581;SDS011;44361;51.476;5.700;2023-06-26T09:18:55;5.18;;;1.15;;
58581;SDS011;44361;51.476;5.700;2023-06-26T09:21:21;4.90;;;0.88;;
58581;SDS011;44361;51.476;5.700;2023-06-26T09:23:47;2.92;;;1.10;;
58581;SDS011;44361;51.476;5.700;2023-06-26T09:26:14;4.97;;;1.35;;
58581;SDS011;44361;51.476;5.700;2023-06-26T09:28:41;5.40;;;1.00;;
58581;SDS011;44361;51.476;5.700;2023-06-26T09:31:08;5.05;;;0.70;;
58581;SDS011;44361;51.476;5.700;2023-06-26T09:33:36;2.90;;;0.90;;
58581;SDS011;44361;51.476;5.700;2023-06-26T09:36:06;5.40;;;0.90;;
58581;SDS011;44361;51.476;5.700;2023-06-26T09:38:33;3.17;;;0.90;;
58581;SDS011;44361;51.476;5.700;2023-06-26T09:40:59;2.50;;;0.77;;
58581;SDS011;44361;51.476;5.700;2023-06-26T09:43:25;2.03;;;0.85;;
58581;SDS011;44361;51.476;5.700;2023-06-26T09:45:52;6.28;;;0.90;;
58581;SDS011;44361;51.476;5.700;2023-06-26T09:48:20;2.70;;;0.80;;
58581;SDS011;44361;51.476;5.700;2023-06-26T09:50:46;4.13;;;1.15;;
58581;SDS011;44361;51.476;5.700;2023-06-26T09:53:12;2.03;;;0.68;;
58581;SDS011;44361;51.476;5.700;2023-06-26T09:55:39;0.88;;;0.70;;
58581;SDS011;44361;51.476;5.700;2023-06-26T09:58:08;2.97;;;0.90;;
58581;SDS011;44361;51.476;5.700;2023-06-26T10:00:39;3.40;;;0.70;;
58581;SDS011;44361;51.476;5.700;2023-06-26T10:03:05;2.30;;;0.70;;
58581;SDS011;44361;51.476;5.700;2023-06-26T10:05:31;4.05;;;0.90;;
58581;SDS011;44361;51.476;5.700;2023-06-26T10:07:56;3.28;;;0.75;;
58581;SDS011;44361;51.476;5.700;2023-06-26T10:10:23;2.78;;;0.70;;
58581;SDS011;44361;51.476;5.700;2023-06-26T10:12:51;2.22;;;0.65;;
58581;SDS011;44361;51.476;5.700;2023-06-26T10:15:23;1.40;;;0.77;;
58581;SDS011;44361;51.476;5.700;2023-06-26T10:17:50;1.98;;;0.70;;
58581;SDS011;44361;51.476;5.700;2023-06-26T10:20:17;5.53;;;0.88;;
58581;SDS011;44361;51.476;5.700;2023-06-26T10:22:44;2.70;;;0.80;;
58581;SDS011;44361;51.476;5.700;2023-06-26T10:25:12;4.78;;;0.85;;
58581;SDS011;44361;51.476;5.700;2023-06-26T10:27:44;3.03;;;0.60;;
58581;SDS011;44361;51.476;5.700;2023-06-26T10:30:22;1.95;;;0.65;;
58581;SDS011;44361;51.476;5.700;2023-06-26T10:32:51;2.42;;;0.75;;
58581;SDS011;44361;51.476;5.700;2023-06-26T10:35:17;4.13;;;0.63;;
58581;SDS011;44361;51.476;5.700;2023-06-26T10:37:44;2.05;;;0.63;;
58581;SDS011;44361;51.476;5.700;2023-06-26T10:40:11;1.65;;;0.40;;
58581;SDS011;44361;51.476;5.700;2023-06-26T10:42:38;1.75;;;0.73;;
58581;SDS011;44361;51.476;5.700;2023-06-26T10:45:15;4.18;;;0.80;;
58581;SDS011;44361;51.476;5.700;2023-06-26T10:47:41;2.55;;;0.50;;
58581;SDS011;44361;51.476;5.700;2023-06-26T10:52:54;2.17;;;0.73;;
58581;SDS011;44361;51.476;5.700;2023-06-26T10:55:34;3.35;;;0.60;;
58581;SDS011;44361;51.476;5.700;2023-06-26T10:58:26;3.28;;;0.70;;
58581;SDS011;44361;51.476;5.700;2023-06-26T11:03:37;1.27;;;0.55;;
58581;SDS011;44361;51.476;5.700;2023-06-26T11:08:49;2.78;;;0.55;;
58581;SDS011;44361;51.476;5.700;2023-06-26T11:11:21;2.92;;;0.77;;
58581;SDS011;44361;51.476;5.700;2023-06-26T11:14:07;0.95;;;0.50;;
58581;SDS011;44361;51.476;5.700;2023-06-26T11:16:33;4.57;;;0.70;;
58581;SDS011;44361;51.476;5.700;2023-06-26T11:18:59;2.55;;;0.60;;
58581;SDS011;44361;51.476;5.700;2023-06-26T11:21:25;1.95;;;0.50;;
58581;SDS011;44361;51.476;5.700;2023-06-26T11:23:52;2.47;;;0.75;;
58581;SDS011;44361;51.476;5.700;2023-06-26T11:26:20;3.65;;;0.60;;
58581;SDS011;44361;51.476;5.700;2023-06-26T11:28:54;1.77;;;0.77;;
58581;SDS011;44361;51.476;5.700;2023-06-26T11:31:27;3.95;;;0.65;;
58581;SDS011;44361;51.476;5.700;2023-06-26T11:33:55;1.60;;;0.60;;
58581;SDS011;44361;51.476;5.700;2023-06-26T11:36:23;1.73;;;0.50;;
58581;SDS011;44361;51.476;5.700;2023-06-26T11:39:00;2.03;;;0.85;;
58581;SDS011;44361;51.476;5.700;2023-06-26T11:41:28;4.10;;;0.75;;
58581;SDS011;44361;51.476;5.700;2023-06-26T11:43:55;1.17;;;0.60;;
58581;SDS011;44361;51.476;5.700;2023-06-26T11:46:21;1.05;;;0.57;;
58581;SDS011;44361;51.476;5.700;2023-06-26T11:48:47;1.85;;;0.60;;
58581;SDS011;44361;51.476;5.700;2023-06-26T11:51:14;2.40;;;0.65;;
58581;SDS011;44361;51.476;5.700;2023-06-26T11:53:40;2.38;;;0.60;;
58581;SDS011;44361;51.476;5.700;2023-06-26T11:56:07;1.70;;;0.60;;
58581;SDS011;44361;51.476;5.700;2023-06-26T11:58:34;3.33;;;0.50;;
58581;SDS011;44361;51.476;5.700;2023-06-26T12:01:00;2.72;;;0.80;;
58581;SDS011;44361;51.476;5.700;2023-06-26T12:03:25;1.30;;;0.50;;
58581;SDS011;44361;51.476;5.700;2023-06-26T12:05:51;2.25;;;0.50;;
58581;SDS011;44361;51.476;5.700;2023-06-26T12:08:17;1.10;;;0.52;;
58581;SDS011;44361;51.476;5.700;2023-06-26T12:10:43;1.25;;;0.38;;
58581;SDS011;44361;51.476;5.700;2023-06-26T12:13:10;2.35;;;0.57;;
58581;SDS011;44361;51.476;5.700;2023-06-26T12:15:35;3.13;;;0.90;;
58581;SDS011;44361;51.476;5.700;2023-06-26T12:18:07;1.70;;;0.40;;
58581;SDS011;44361;51.476;5.700;2023-06-26T12:20:33;4.13;;;0.60;;
58581;SDS011;44361;51.476;5.700;2023-06-26T12:23:05;1.45;;;0.75;;
58581;SDS011;44361;51.476;5.700;2023-06-26T12:25:37;2.40;;;0.95;;
58581;SDS011;44361;51.476;5.700;2023-06-26T12:28:02;2.03;;;0.65;;
58581;SDS011;44361;51.476;5.700;2023-06-26T12:30:28;1.45;;;0.68;;
58581;SDS011;44361;51.476;5.700;2023-06-26T12:32:54;4.97;;;0.60;;
58581;SDS011;44361;51.476;5.700;2023-06-26T12:35:19;3.13;;;0.60;;
58581;SDS011;44361;51.476;5.700;2023-06-26T12:37:46;1.42;;;0.50;;
58581;SDS011;44361;51.476;5.700;2023-06-26T12:40:18;1.05;;;0.40;;
58581;SDS011;44361;51.476;5.700;2023-06-26T12:42:46;1.38;;;0.70;;
58581;SDS011;44361;51.476;5.700;2023-06-26T12:45:13;1.15;;;0.60;;
58581;SDS011;44361;51.476;5.700;2023-06-26T12:47:39;1.23;;;0.50;;
58581;SDS011;44361;51.476;5.700;2023-06-26T12:50:06;2.13;;;1.23;;
58581;SDS011;44361;51.476;5.700;2023-06-26T12:52:32;3.50;;;1.10;;
58581;SDS011;44361;51.476;5.700;2023-06-26T12:54:58;2.33;;;1.00;;
58581;SDS011;44361;51.476;5.700;2023-06-26T12:57:24;2.08;;;0.98;;
58581;SDS011;44361;51.476;5.700;2023-06-26T12:59:50;1.80;;;0.70;;
58581;SDS011;44361;51.476;5.700;2023-06-26T13:02:15;3.88;;;0.73;;
58581;SDS011;44361;51.476;5.700;2023-06-26T13:04:41;2.40;;;0.77;;
58581;SDS011;44361;51.476;5.700;2023-06-26T13:07:09;2.92;;;0.77;;
58581;SDS011;44361;51.476;5.700;2023-06-26T13:09:35;5.35;;;0.82;;
58581;SDS011;44361;51.476;5.700;2023-06-26T13:12:01;3.55;;;0.77;;
58581;SDS011;44361;51.476;5.700;2023-06-26T13:14:28;1.08;;;0.35;;
58581;SDS011;44361;51.476;5.700;2023-06-26T13:16:54;2.22;;;0.90;;
58581;SDS011;44361;51.476;5.700;2023-06-26T13:19:20;1.25;;;0.75;;
58581;SDS011;44361;51.476;5.700;2023-06-26T13:21:45;1.63;;;0.60;;
58581;SDS011;44361;51.476;5.700;2023-06-26T13:24:11;3.53;;;1.00;;
58581;SDS011;44361;51.476;5.700;2023-06-26T13:26:36;1.70;;;0.70;;
58581;SDS011;44361;51.476;5.700;2023-06-26T13:29:02;2.20;;;0.60;;
58581;SDS011;44361;51.476;5.700;2023-06-26T13:31:28;5.07;;;0.70;;
58581;SDS011;44361;51.476;5.700;2023-06-26T13:33:56;4.32;;;0.80;;
58581;SDS011;44361;51.476;5.700;2023-06-26T13:36:23;6.85;;;0.75;;
58581;SDS011;44361;51.476;5.700;2023-06-26T13:38:49;5.28;;;0.63;;
58581;SDS011;44361;51.476;5.700;2023-06-26T13:41:20;3.03;;;0.60;;
58581;SDS011;44361;51.476;5.700;2023-06-26T13:43:49;3.63;;;0.75;;
58581;SDS011;44361;51.476;5.700;2023-06-26T13:46:15;2.20;;;0.80;;
58581;SDS011;44361;51.476;5.700;2023-06-26T13:48:42;3.30;;;1.02;;
58581;SDS011;44361;51.476;5.700;2023-06-26T13:51:07;4.57;;;0.90;;
58581;SDS011;44361;51.476;5.700;2023-06-26T13:53:33;3.20;;;0.75;;
58581;SDS011;44361;51.476;5.700;2023-06-26T13:55:58;2.67;;;0.70;;
58581;SDS011;44361;51.476;5.700;2023-06-26T13:58:24;3.00;;;0.90;;
58581;SDS011;44361;51.476;5.700;2023-06-26T14:00:52;1.73;;;0.60;;
58581;SDS011;44361;51.476;5.700;2023-06-26T14:03:18;3.85;;;0.57;;
58581;SDS011;44361;51.476;5.700;2023-06-26T14:05:44;1.08;;;0.45;;
58581;SDS011;44361;51.476;5.700;2023-06-26T14:08:09;1.58;;;0.63;;
58581;SDS011;44361;51.476;5.700;2023-06-26T14:10:35;3.42;;;0.70;;
58581;SDS011;44361;51.476;5.700;2023-06-26T14:13:01;2.25;;;0.50;;
58581;SDS011;44361;51.476;5.700;2023-06-26T14:15:28;1.15;;;0.57;;
58581;SDS011;44361;51.476;5.700;2023-06-26T14:17:54;5.50;;;0.90;;
58581;SDS011;44361;51.476;5.700;2023-06-26T14:20:21;4.15;;;0.70;;
58581;SDS011;44361;51.476;5.700;2023-06-26T14:22:47;3.83;;;0.57;;
58581;SDS011;44361;51.476;5.700;2023-06-26T14:25:13;3.55;;;0.80;;
58581;SDS011;44361;51.476;5.700;2023-06-26T14:27:39;3.50;;;0.63;;
58581;SDS011;44361;51.476;5.700;2023-06-26T14:30:05;3.28;;;0.77;;
58581;SDS011;44361;51.476;5.700;2023-06-26T14:32:32;2.63;;;0.60;;
58581;SDS011;44361;51.476;5.700;2023-06-26T14:34:58;1.45;;;0.88;;
58581;SDS011;44361;51.476;5.700;2023-06-26T14:37:24;1.38;;;0.63;;
58581;SDS011;44361;51.476;5.700;2023-06-26T14:39:50;1.85;;;0.65;;
58581;SDS011;44361;51.476;5.700;2023-06-26T14:42:16;6.90;;;0.70;;
58581;SDS011;44361;51.476;5.700;2023-06-26T14:44:42;3.33;;;0.82;;
58581;SDS011;44361;51.476;5.700;2023-06-26T14:47:12;3.05;;;1.08;;
58581;SDS011;44361;51.476;5.700;2023-06-26T14:49:41;3.42;;;0.80;;
58581;SDS011;44361;51.476;5.700;2023-06-26T14:52:07;2.80;;;0.57;;
58581;SDS011;44361;51.476;5.700;2023-06-26T14:54:33;1.30;;;0.68;;